createdAt,value
2018-05-13T00:00:43.896Z,11.60
2018-05-13T00:03:12.078Z,11.70
2018-05-13T00:05:40.227Z,11.70
2018-05-13T00:08:08.403Z,11.70
2018-05-13T00:10:36.554Z,11.60
2018-05-13T00:13:04.728Z,11.60
2018-05-13T00:15:32.881Z,11.60
2018-05-13T00:18:01.056Z,11.60
2018-05-13T00:20:29.209Z,11.60
2018-05-13T00:22:57.393Z,11.50
2018-05-13T00:25:25.556Z,11.60
2018-05-13T00:27:53.725Z,11.50
2018-05-13T00:30:21.877Z,11.50
2018-05-13T00:32:50.062Z,11.50
2018-05-13T00:35:18.219Z,11.50
2018-05-13T00:37:46.392Z,11.50
2018-05-13T00:40:14.551Z,11.50
2018-05-13T00:42:43.496Z,11.50
2018-05-13T00:45:11.650Z,11.40
2018-05-13T00:47:39.823Z,11.40
2018-05-13T00:50:07.980Z,11.40
2018-05-13T00:52:36.157Z,11.40
2018-05-13T00:55:04.312Z,11.40
2018-05-13T00:57:32.490Z,11.40
2018-05-13T01:00:00.640Z,11.40
2018-05-13T01:02:28.822Z,11.40
2018-05-13T01:04:56.976Z,11.40
2018-05-13T01:07:25.160Z,11.30
2018-05-13T01:09:53.317Z,11.30
2018-05-13T01:12:21.498Z,11.30
2018-05-13T01:14:49.660Z,11.30
2018-05-13T01:17:17.844Z,11.30
2018-05-13T01:19:45.995Z,11.30
2018-05-13T01:22:15.100Z,11.30
2018-05-13T01:24:43.500Z,11.30
2018-05-13T01:27:11.679Z,11.30
2018-05-13T01:29:39.832Z,11.30
2018-05-13T01:32:08.009Z,11.30
2018-05-13T01:34:36.165Z,11.30
2018-05-13T01:37:04.345Z,11.30
2018-05-13T01:39:32.499Z,11.30
2018-05-13T01:42:00.672Z,11.40
2018-05-13T01:44:28.847Z,11.30
2018-05-13T01:46:56.999Z,11.30
2018-05-13T01:49:25.226Z,11.40
2018-05-13T01:51:53.357Z,11.40
2018-05-13T01:54:21.536Z,11.40
2018-05-13T01:56:49.690Z,11.30
2018-05-13T01:59:18.635Z,11.40
2018-05-13T02:01:46.786Z,11.40
2018-05-13T02:04:14.964Z,11.40
2018-05-13T02:06:43.117Z,11.40
2018-05-13T02:09:11.292Z,11.40
2018-05-13T02:11:39.445Z,11.40
2018-05-13T02:14:07.633Z,11.40
2018-05-13T02:16:35.781Z,11.40
2018-05-13T02:19:03.956Z,11.30
2018-05-13T02:21:32.117Z,11.40
2018-05-13T02:24:00.297Z,11.40
2018-05-13T02:26:29.235Z,11.40
2018-05-13T02:28:57.417Z,11.40
2018-05-13T02:31:25.568Z,11.40
2018-05-13T02:33:54.169Z,11.40
2018-05-13T02:36:22.328Z,11.50
2018-05-13T02:38:50.512Z,11.50
2018-05-13T02:41:18.672Z,11.50
2018-05-13T02:43:46.851Z,11.50
2018-05-13T02:46:15.013Z,11.50
2018-05-13T02:48:43.189Z,11.50
2018-05-13T02:51:11.345Z,11.60
2018-05-13T02:53:39.530Z,11.50
2018-05-13T02:56:07.681Z,11.60
2018-05-13T02:58:35.858Z,11.60
2018-05-13T03:01:04.003Z,11.60
2018-05-13T03:03:32.189Z,11.60
2018-05-13T03:06:00.341Z,11.60
2018-05-13T03:08:28.517Z,11.70
2018-05-13T03:10:56.668Z,11.70
2018-05-13T03:13:24.843Z,11.70
2018-05-13T03:15:52.997Z,11.70
2018-05-13T03:18:21.178Z,11.80
2018-05-13T03:20:49.326Z,11.80
2018-05-13T03:23:17.495Z,11.80
2018-05-13T03:25:45.659Z,11.80
2018-05-13T03:28:13.841Z,11.90
2018-05-13T03:30:42.004Z,11.90
2018-05-13T03:33:10.182Z,11.90
2018-05-13T03:35:38.333Z,11.90
2018-05-13T03:38:06.509Z,11.90
2018-05-13T03:40:34.660Z,12.00
2018-05-13T03:43:02.849Z,12.00
2018-05-13T03:45:30.996Z,12.00
2018-05-13T03:47:59.157Z,12.10
2018-05-13T03:50:27.336Z,12.10
2018-05-13T03:52:55.495Z,12.20
2018-05-13T03:55:24.433Z,12.20
2018-05-13T03:57:52.583Z,12.20
2018-05-13T04:00:20.775Z,12.20
2018-05-13T04:02:48.933Z,12.20
2018-05-13T04:05:17.108Z,12.20
2018-05-13T04:11:13.847Z,12.30
2018-05-13T04:13:53.732Z,12.40
2018-05-13T04:16:21.889Z,12.40
2018-05-13T04:18:50.086Z,12.40
2018-05-13T04:21:18.236Z,12.40
2018-05-13T04:23:46.389Z,12.40
2018-05-13T04:26:15.332Z,12.50
2018-05-13T04:28:43.482Z,12.50
2018-05-13T04:31:11.664Z,12.50
2018-05-13T04:33:39.821Z,12.60
2018-05-13T04:36:08.000Z,12.60
2018-05-13T04:38:36.148Z,12.60
2018-05-13T04:41:04.324Z,12.60
2018-05-13T04:43:32.481Z,12.70
2018-05-13T04:46:00.657Z,12.70
2018-05-13T04:48:28.814Z,12.70
2018-05-13T04:50:56.992Z,12.70
2018-05-13T04:53:25.147Z,12.80
2018-05-13T04:55:53.337Z,12.80
2018-05-13T04:58:21.489Z,12.80
2018-05-13T05:00:49.665Z,12.80
2018-05-13T05:03:17.824Z,12.90
2018-05-13T05:05:46.000Z,12.90
2018-05-13T05:08:14.149Z,12.90
2018-05-13T05:10:42.349Z,13.00
2018-05-13T05:13:10.501Z,13.00
2018-05-13T05:15:38.681Z,13.10
2018-05-13T05:18:06.824Z,13.10
2018-05-13T05:20:35.006Z,13.10
2018-05-13T05:23:03.626Z,13.10
2018-05-13T05:25:32.796Z,13.20
2018-05-13T05:28:01.708Z,13.20
2018-05-13T05:30:29.888Z,13.20
2018-05-13T05:32:58.040Z,13.20
2018-05-13T05:35:26.217Z,13.20
2018-05-13T05:37:54.369Z,13.30
2018-05-13T05:40:23.315Z,13.40
2018-05-13T05:42:51.468Z,13.30
2018-05-13T05:45:19.643Z,13.40
2018-05-13T05:47:47.801Z,13.40
2018-05-13T05:50:15.988Z,13.50
2018-05-13T05:52:44.147Z,13.50
2018-05-13T05:55:12.345Z,13.60
2018-05-13T05:57:40.493Z,13.60
2018-05-13T06:00:09.433Z,13.70
2018-05-13T06:02:37.576Z,13.70
2018-05-13T06:05:05.730Z,13.80
2018-05-13T06:07:33.907Z,13.80
2018-05-13T06:10:02.070Z,13.90
2018-05-13T06:12:31.012Z,13.90
2018-05-13T06:14:59.167Z,13.90
2018-05-13T06:17:27.805Z,14.00
2018-05-13T06:19:55.958Z,14.00
2018-05-13T06:22:24.140Z,14.00
2018-05-13T06:24:52.293Z,14.10
2018-05-13T06:27:20.468Z,14.20
2018-05-13T06:29:49.150Z,14.20
2018-05-13T06:32:17.330Z,14.20
2018-05-13T06:34:46.275Z,14.30
2018-05-13T06:37:14.468Z,14.40
2018-05-13T06:39:43.766Z,14.50
2018-05-13T06:42:11.877Z,14.60
2018-05-13T06:44:40.042Z,14.70
2018-05-13T06:47:08.225Z,14.70
2018-05-13T06:49:37.297Z,14.80
2018-05-13T06:52:05.515Z,14.90
2018-05-13T06:54:34.256Z,15.10
2018-05-13T06:57:04.386Z,15.30
2018-05-13T06:59:32.573Z,15.60
2018-05-13T07:02:00.786Z,15.80
2018-05-13T07:04:29.904Z,16.00
2018-05-13T07:06:58.093Z,16.00
2018-05-13T07:09:26.259Z,16.10
2018-05-13T07:11:54.452Z,16.10
2018-05-13T07:14:22.617Z,16.30
2018-05-13T07:16:50.816Z,16.30
2018-05-13T07:19:18.977Z,16.50
2018-05-13T07:21:47.830Z,16.60
2018-05-13T07:24:15.996Z,16.90
2018-05-13T07:26:47.879Z,17.10
2018-05-13T07:29:16.071Z,17.40
2018-05-13T07:31:44.259Z,17.70
2018-05-13T07:34:12.418Z,18.00
2018-05-13T07:36:40.628Z,18.20
2018-05-13T07:39:08.823Z,18.40
2018-05-13T07:41:37.023Z,18.60
2018-05-13T07:44:05.256Z,18.80
2018-05-13T07:46:33.499Z,19.10
2018-05-13T07:49:02.613Z,19.20
2018-05-13T07:51:30.837Z,19.40
2018-05-13T07:53:59.002Z,19.40
2018-05-13T07:56:27.280Z,19.40
2018-05-13T07:58:55.524Z,19.30
2018-05-13T08:01:23.716Z,19.50
2018-05-13T08:03:52.641Z,19.30
2018-05-13T08:06:20.878Z,19.30
2018-05-13T08:08:49.045Z,19.50
2018-05-13T08:11:17.264Z,19.70
2018-05-13T08:13:45.695Z,19.80
2018-05-13T08:16:13.844Z,20.00
2018-05-13T08:18:42.243Z,20.00
2018-05-13T08:21:10.420Z,20.10
2018-05-13T08:23:38.611Z,20.20
2018-05-13T08:26:06.787Z,20.40
2018-05-13T08:28:35.004Z,20.50
2018-05-13T08:31:03.252Z,20.60
2018-05-13T08:33:32.183Z,20.70
2018-05-13T08:36:00.422Z,20.80
2018-05-13T08:38:28.672Z,21.00
2018-05-13T08:40:56.900Z,21.20
2018-05-13T08:43:25.215Z,21.20
2018-05-13T08:45:54.255Z,21.30
2018-05-13T08:48:22.659Z,21.30
2018-05-13T08:50:50.904Z,21.40
2018-05-13T08:53:19.097Z,21.40
2018-05-13T08:55:47.251Z,21.50
2018-05-13T08:58:15.429Z,21.50
2018-05-13T09:00:43.579Z,21.60
2018-05-13T09:03:12.540Z,21.70
2018-05-13T09:05:40.729Z,21.70
2018-05-13T09:08:08.909Z,21.80
2018-05-13T09:10:37.061Z,21.90
2018-05-13T09:13:05.281Z,21.90
2018-05-13T09:15:34.057Z,22.00
2018-05-13T09:18:02.996Z,22.10
2018-05-13T09:20:31.186Z,22.10
2018-05-13T09:22:59.417Z,22.10
2018-05-13T09:25:27.593Z,22.10
2018-05-13T09:27:55.784Z,22.00
2018-05-13T09:30:23.945Z,22.10
2018-05-13T09:32:52.125Z,22.20
2018-05-13T09:35:20.285Z,22.30
2018-05-13T09:37:48.480Z,22.40
2018-05-13T09:40:16.635Z,22.60
2018-05-13T09:42:44.812Z,22.60
2018-05-13T09:45:12.959Z,22.70
2018-05-13T09:47:41.161Z,22.80
2018-05-13T09:50:09.320Z,22.90
2018-05-13T09:52:38.301Z,23.00
2018-05-13T09:55:07.216Z,23.10
2018-05-13T09:57:36.463Z,23.10
2018-05-13T10:00:04.560Z,23.10
2018-05-13T10:02:32.741Z,23.20
2018-05-13T10:05:01.668Z,23.30
2018-05-13T10:07:31.610Z,23.30
2018-05-13T10:09:59.846Z,23.40
2018-05-13T10:12:28.856Z,23.40
2018-05-13T10:14:57.518Z,23.50
2018-05-13T10:20:16.920Z,23.60
2018-05-13T10:22:45.105Z,23.70
2018-05-13T10:25:13.257Z,23.80
2018-05-13T10:27:42.615Z,23.80
2018-05-13T10:30:10.772Z,23.70
2018-05-13T10:32:38.951Z,23.80
2018-05-13T10:35:07.111Z,23.90
2018-05-13T10:37:35.285Z,23.90
2018-05-13T10:40:03.461Z,23.90
2018-05-13T10:42:31.704Z,23.90
2018-05-13T10:44:59.825Z,23.90
2018-05-13T10:47:27.981Z,24.00
2018-05-13T10:49:56.164Z,24.00
2018-05-13T10:52:24.315Z,24.00
2018-05-13T10:54:52.502Z,24.00
2018-05-13T10:57:20.650Z,24.00
2018-05-13T10:59:48.832Z,24.00
2018-05-13T11:02:16.985Z,24.00
2018-05-13T11:04:45.233Z,24.00
2018-05-13T11:07:13.342Z,24.10
2018-05-13T11:09:41.549Z,24.10
2018-05-13T11:12:09.774Z,24.10
2018-05-13T11:14:38.725Z,24.20
2018-05-13T11:17:06.875Z,24.20
2018-05-13T11:19:35.057Z,24.30
2018-05-13T11:22:03.212Z,24.40
2018-05-13T11:24:31.403Z,24.50
2018-05-13T11:26:59.567Z,24.50
2018-05-13T11:29:27.744Z,24.40
2018-05-13T11:31:55.903Z,24.50
2018-05-13T11:34:24.088Z,24.50
2018-05-13T11:36:52.260Z,24.40
2018-05-13T11:39:20.444Z,24.40
2018-05-13T11:41:48.599Z,24.50
2018-05-13T11:44:16.790Z,24.50
2018-05-13T11:46:44.972Z,24.40
2018-05-13T11:49:13.157Z,24.50
2018-05-13T11:51:41.309Z,24.50
2018-05-13T11:54:09.501Z,24.50
2018-05-13T11:56:37.653Z,24.50
2018-05-13T11:59:05.832Z,24.40
2018-05-13T12:01:33.993Z,24.40
2018-05-13T12:04:02.182Z,24.40
2018-05-13T12:06:30.330Z,24.40
2018-05-13T12:08:58.526Z,24.40
2018-05-13T12:11:26.680Z,24.40
2018-05-13T12:13:54.861Z,24.40
2018-05-13T12:16:23.020Z,24.40
2018-05-13T12:18:51.213Z,24.30
2018-05-13T12:21:19.367Z,24.30
2018-05-13T12:23:47.554Z,24.30
2018-05-13T12:26:15.722Z,24.30
2018-05-13T12:28:43.911Z,24.30
2018-05-13T12:31:12.080Z,24.30
2018-05-13T12:33:40.281Z,24.30
2018-05-13T12:36:08.440Z,24.40
2018-05-13T12:38:36.702Z,24.40
2018-05-13T12:41:04.843Z,24.50
2018-05-13T12:43:32.993Z,24.50
2018-05-13T12:46:01.175Z,24.50
2018-05-13T12:48:29.329Z,24.50
2018-05-13T12:50:57.562Z,24.40
2018-05-13T12:53:26.483Z,24.40
2018-05-13T12:55:54.713Z,24.30
2018-05-13T12:58:22.905Z,24.30
2018-05-13T13:00:51.105Z,24.30
2018-05-13T13:03:19.262Z,24.30
2018-05-13T13:05:47.435Z,24.30
2018-05-13T13:08:15.597Z,24.30
2018-05-13T13:10:43.795Z,24.30
2018-05-13T13:13:11.953Z,24.30
2018-05-13T13:15:40.134Z,24.30
2018-05-13T13:18:08.354Z,24.30
2018-05-13T13:20:36.545Z,24.30
2018-05-13T13:23:04.732Z,24.30
2018-05-13T13:25:32.912Z,24.20
2018-05-13T13:28:01.089Z,24.20
2018-05-13T13:30:30.111Z,24.20
2018-05-13T13:32:58.367Z,24.20
2018-05-13T13:35:26.607Z,24.30
2018-05-13T13:37:54.860Z,24.30
2018-05-13T13:40:23.884Z,24.30
2018-05-13T13:42:52.807Z,24.30
2018-05-13T13:45:20.983Z,24.30
2018-05-13T13:47:49.150Z,24.40
2018-05-13T13:50:17.329Z,24.40
2018-05-13T13:52:45.476Z,24.40
2018-05-13T13:55:14.432Z,24.40
2018-05-13T13:57:42.587Z,24.40
2018-05-13T14:00:10.769Z,24.40
2018-05-13T14:02:38.937Z,24.30
2018-05-13T14:05:07.126Z,24.30
2018-05-13T14:07:35.286Z,24.30
2018-05-13T14:10:03.467Z,24.30
2018-05-13T14:12:31.622Z,24.30
2018-05-13T14:14:59.804Z,24.30
2018-05-13T14:17:27.963Z,24.30
2018-05-13T14:19:56.156Z,24.30
2018-05-13T14:22:24.323Z,24.40
2018-05-13T14:24:52.512Z,24.40
2018-05-13T14:27:20.680Z,24.30
2018-05-13T14:29:48.865Z,24.30
2018-05-13T14:32:17.042Z,24.20
2018-05-13T14:34:45.241Z,24.10
2018-05-13T14:37:13.392Z,24.10
2018-05-13T14:39:41.620Z,24.20
2018-05-13T14:42:09.751Z,24.20
2018-05-13T14:44:37.910Z,24.20
2018-05-13T14:47:06.084Z,24.20
2018-05-13T14:49:34.260Z,24.30
2018-05-13T14:52:02.433Z,24.20
2018-05-13T14:54:30.584Z,24.20
2018-05-13T14:56:58.912Z,24.20
2018-05-13T14:59:27.206Z,24.10
2018-05-13T15:01:56.175Z,24.10
2018-05-13T15:04:24.329Z,24.10
2018-05-13T15:06:52.507Z,24.20
2018-05-13T15:09:22.151Z,24.30
2018-05-13T15:11:48.887Z,24.30
2018-05-13T15:14:17.809Z,24.20
2018-05-13T15:16:45.989Z,24.20
2018-05-13T15:19:14.151Z,24.10
2018-05-13T15:21:42.396Z,24.10
2018-05-13T15:24:10.556Z,24.10
2018-05-13T15:26:38.727Z,24.10
2018-05-13T15:29:06.907Z,24.00
2018-05-13T15:31:35.079Z,24.10
2018-05-13T15:34:03.287Z,24.10
2018-05-13T15:36:31.470Z,24.10
2018-05-13T15:38:59.688Z,24.20
2018-05-13T15:41:27.859Z,24.20
2018-05-13T15:43:56.145Z,24.10
2018-05-13T15:46:25.146Z,24.10
2018-05-13T15:48:53.301Z,24.20
2018-05-13T15:51:21.499Z,24.20
2018-05-13T15:53:49.671Z,24.20
2018-05-13T15:56:17.959Z,24.10
2018-05-13T15:58:46.169Z,24.10
2018-05-13T16:01:14.368Z,24.10
2018-05-13T16:03:42.533Z,24.20
2018-05-13T16:06:10.712Z,24.10
2018-05-13T16:08:38.856Z,24.10
2018-05-13T16:11:07.038Z,24.10
2018-05-13T16:13:35.198Z,24.10
2018-05-13T16:16:03.386Z,24.10
2018-05-13T16:18:31.538Z,24.10
2018-05-13T16:21:00.535Z,24.10
2018-05-13T16:23:29.470Z,24.00
2018-05-13T16:25:57.648Z,24.00
2018-05-13T16:28:25.799Z,24.00
2018-05-13T16:30:53.993Z,24.00
2018-05-13T16:33:22.149Z,23.90
2018-05-13T16:35:50.306Z,23.90
2018-05-13T16:38:18.487Z,23.70
2018-05-13T16:40:46.640Z,23.60
2018-05-13T16:43:15.579Z,23.30
2018-05-13T16:45:43.736Z,23.30
2018-05-13T16:48:11.908Z,23.20
2018-05-13T16:50:40.067Z,23.00
2018-05-13T16:53:08.349Z,22.90
2018-05-13T16:55:36.437Z,22.80
2018-05-13T16:58:04.612Z,22.70
2018-05-13T17:00:32.768Z,22.50
2018-05-13T17:03:00.984Z,22.50
2018-05-13T17:05:29.140Z,22.40
2018-05-13T17:07:57.340Z,22.30
2018-05-13T17:10:25.500Z,22.20
2018-05-13T17:12:53.681Z,22.10
2018-05-13T17:15:21.832Z,22.00
2018-05-13T17:17:50.016Z,21.90
2018-05-13T17:20:18.949Z,21.70
2018-05-13T17:22:47.183Z,21.70
2018-05-13T17:25:15.365Z,21.70
2018-05-13T17:27:43.556Z,21.60
2018-05-13T17:30:11.713Z,21.50
2018-05-13T17:32:39.932Z,21.40
2018-05-13T17:35:08.093Z,21.40
2018-05-13T17:37:36.318Z,21.30
2018-05-13T17:40:04.503Z,21.20
2018-05-13T17:42:32.680Z,21.20
2018-05-13T17:45:00.838Z,21.10
2018-05-13T17:47:29.031Z,21.00
2018-05-13T17:49:58.042Z,20.90
2018-05-13T17:52:26.259Z,20.80
2018-05-13T17:54:54.479Z,20.80
2018-05-13T17:57:22.734Z,20.80
2018-05-13T17:59:51.708Z,20.60
2018-05-13T18:02:20.685Z,20.60
2018-05-13T18:04:49.681Z,20.50
2018-05-13T18:07:17.876Z,20.50
2018-05-13T18:09:46.367Z,20.40
2018-05-13T18:12:15.295Z,20.40
2018-05-13T18:14:43.449Z,20.30
2018-05-13T18:17:11.628Z,20.20
2018-05-13T18:19:40.703Z,20.20
2018-05-13T18:22:08.925Z,20.10
2018-05-13T18:24:38.003Z,20.00
2018-05-13T18:27:06.217Z,20.00
2018-05-13T18:29:34.393Z,19.90
2018-05-13T18:32:02.581Z,19.80
2018-05-13T18:34:30.752Z,19.80
2018-05-13T18:36:58.918Z,19.70
2018-05-13T18:39:27.096Z,19.60
2018-05-13T18:41:55.261Z,19.50
2018-05-13T18:44:23.444Z,19.40
2018-05-13T18:46:51.604Z,19.30
2018-05-13T18:49:19.791Z,19.30
2018-05-13T18:51:47.965Z,19.10
2018-05-13T18:54:16.149Z,19.10
2018-05-13T18:56:44.317Z,18.90
2018-05-13T18:59:12.517Z,18.90
2018-05-13T19:01:40.807Z,18.80
2018-05-13T19:04:09.010Z,18.80
2018-05-13T19:06:37.951Z,18.60
2018-05-13T19:09:06.144Z,18.60
2018-05-13T19:11:34.308Z,18.50
2018-05-13T19:14:02.513Z,18.40
2018-05-13T19:16:30.689Z,18.30
2018-05-13T19:18:58.900Z,18.30
2018-05-13T19:21:27.073Z,18.20
2018-05-13T19:23:55.276Z,18.10
2018-05-13T19:26:23.816Z,18.10
2018-05-13T19:28:52.072Z,17.90
2018-05-13T19:31:20.233Z,17.90
2018-05-13T19:33:48.439Z,17.80
2018-05-13T19:36:16.601Z,17.70
2018-05-13T19:38:45.578Z,17.40
2018-05-13T19:41:13.775Z,17.40
2018-05-13T19:43:41.983Z,17.40
2018-05-13T19:46:10.204Z,17.30
2018-05-13T19:48:38.415Z,17.20
2018-05-13T19:51:06.568Z,17.10
2018-05-13T19:53:35.516Z,16.90
2018-05-13T19:56:03.679Z,16.90
2018-05-13T19:58:31.961Z,16.90
2018-05-13T20:01:00.126Z,16.80
2018-05-13T20:03:28.437Z,16.70
2018-05-13T20:05:56.536Z,16.60
2018-05-13T20:08:25.483Z,16.40
2018-05-13T20:10:53.633Z,16.40
2018-05-13T20:13:21.833Z,16.30
2018-05-13T20:15:50.020Z,16.20
2018-05-13T20:18:18.219Z,16.10
2018-05-13T20:20:46.426Z,16.00
2018-05-13T20:23:26.424Z,15.90
2018-05-13T20:25:54.616Z,15.80
2018-05-13T20:28:23.591Z,15.60
2018-05-13T20:30:51.823Z,15.60
2018-05-13T20:33:20.016Z,15.50
2018-05-13T20:35:48.321Z,15.40
2018-05-13T20:38:16.529Z,15.30
2018-05-13T20:40:45.492Z,15.10
2018-05-13T20:43:13.649Z,15.20
2018-05-13T20:45:41.850Z,15.00
2018-05-13T20:48:10.004Z,15.00
2018-05-13T20:50:38.180Z,14.90
2018-05-13T20:53:06.343Z,14.90
2018-05-13T20:55:34.520Z,14.80
2018-05-13T20:58:02.677Z,14.70
2018-05-13T21:00:30.853Z,14.60
2018-05-13T21:02:59.064Z,14.60
2018-05-13T21:05:27.208Z,14.50
2018-05-13T21:07:55.360Z,14.40
2018-05-13T21:10:23.551Z,14.40
2018-05-13T21:12:51.706Z,14.40
2018-05-13T21:15:19.893Z,14.30
2018-05-13T21:17:48.044Z,14.30
2018-05-13T21:20:16.224Z,14.30
2018-05-13T21:22:44.381Z,14.30
2018-05-13T21:25:12.561Z,14.20
2018-05-13T21:27:40.715Z,14.20
2018-05-13T21:30:09.657Z,14.10
2018-05-13T21:32:37.808Z,14.10
2018-05-13T21:35:05.980Z,14.10
2018-05-13T21:37:34.144Z,14.00
2018-05-13T21:40:02.325Z,14.00
2018-05-13T21:42:31.253Z,13.90
2018-05-13T21:44:59.435Z,13.90
2018-05-13T21:47:27.588Z,13.90
2018-05-13T21:49:55.763Z,13.80
2018-05-13T21:52:23.917Z,13.70
2018-05-13T21:54:52.141Z,13.80
2018-05-13T21:57:20.302Z,13.70
2018-05-13T21:59:48.495Z,13.70
2018-05-13T22:02:16.664Z,13.70
2018-05-13T22:04:56.522Z,13.60
2018-05-13T22:07:24.700Z,13.60
2018-05-13T22:09:52.875Z,13.50
2018-05-13T22:12:21.024Z,13.40
2018-05-13T22:14:49.260Z,13.40
2018-05-13T22:17:17.429Z,13.40
2018-05-13T22:19:45.605Z,13.30
2018-05-13T22:22:13.764Z,13.30
2018-05-13T22:24:41.932Z,13.30
2018-05-13T22:27:10.113Z,13.30
2018-05-13T22:29:39.048Z,13.20
2018-05-13T22:32:07.200Z,13.20
2018-05-13T22:34:35.372Z,13.20
2018-05-13T22:37:03.519Z,13.10
2018-05-13T22:39:31.699Z,13.10
2018-05-13T22:42:00.622Z,13.00
2018-05-13T22:44:28.806Z,12.90
2018-05-13T22:46:56.960Z,12.90
2018-05-13T22:49:25.167Z,12.90
2018-05-13T22:51:53.313Z,12.90
2018-05-13T22:54:21.465Z,12.90
2018-05-13T22:56:49.641Z,12.90
2018-05-13T22:59:17.789Z,12.90
2018-05-13T23:01:45.972Z,12.80
2018-05-13T23:04:14.126Z,12.80
2018-05-13T23:06:42.300Z,12.80
2018-05-13T23:09:10.505Z,12.80
2018-05-13T23:11:38.660Z,12.80
2018-05-13T23:14:06.811Z,12.80
2018-05-13T23:16:34.991Z,12.70
2018-05-13T23:19:03.152Z,12.70
2018-05-13T23:21:31.323Z,12.60
2018-05-13T23:23:59.481Z,12.50
2018-05-13T23:26:27.656Z,12.50
2018-05-13T23:28:55.801Z,12.50
2018-05-13T23:31:23.976Z,12.50
2018-05-13T23:33:52.127Z,12.40
2018-05-13T23:36:20.307Z,12.40
2018-05-13T23:38:48.461Z,12.30
2018-05-13T23:41:16.648Z,12.30
2018-05-13T23:43:44.817Z,12.30
2018-05-13T23:46:12.994Z,12.20
2018-05-13T23:48:41.141Z,12.20
2018-05-13T23:51:09.320Z,12.20
2018-05-13T23:53:37.481Z,12.10
2018-05-13T23:56:05.660Z,12.10
2018-05-13T23:58:33.819Z,12.10
